sensor_id;sensor_type;location;lat;lon;timestamp;temperature;humidity
75022;SHT31;63583;49.976;20.182;2023-04-09T00:01:59;4.30;96.18
75022;SHT31;63583;49.976;20.182;2023-04-09T00:04:24;4.31;95.98
75022;SHT31;63583;49.976;20.182;2023-04-09T00:06:50;4.25;95.99
75022;SHT31;63583;49.976;20.182;2023-04-09T00:09:16;4.27;96.15
75022;SHT31;63583;49.976;20.182;2023-04-09T00:11:41;4.25;96.26
75022;SHT31;63583;49.976;20.182;2023-04-09T00:14:07;4.24;96.49
75022;SHT31;63583;49.976;20.182;2023-04-09T00:16:32;4.25;96.67
75022;SHT31;63583;49.976;20.182;2023-04-09T00:18:58;4.30;96.95
75022;SHT31;63583;49.976;20.182;2023-04-09T00:21:24;4.33;97.11
75022;SHT31;63583;49.976;20.182;2023-04-09T00:23:51;4.36;97.28
75022;SHT31;63583;49.976;20.182;2023-04-09T00:26:17;4.37;97.32
75022;SHT31;63583;49.976;20.182;2023-04-09T00:28:42;4.40;97.19
75022;SHT31;63583;49.976;20.182;2023-04-09T00:31:08;4.40;97.14
75022;SHT31;63583;49.976;20.182;2023-04-09T00:33:35;4.41;97.13
75022;SHT31;63583;49.976;20.182;2023-04-09T00:36:00;4.44;97.17
75022;SHT31;63583;49.976;20.182;2023-04-09T00:38:26;4.42;97.20
75022;SHT31;63583;49.976;20.182;2023-04-09T00:40:52;4.48;97.20
75022;SHT31;63583;49.976;20.182;2023-04-09T00:43:17;4.51;97.12
75022;SHT31;63583;49.976;20.182;2023-04-09T00:45:43;4.51;96.93
75022;SHT31;63583;49.976;20.182;2023-04-09T00:48:11;4.48;96.87
75022;SHT31;63583;49.976;20.182;2023-04-09T00:50:37;4.49;96.92
75022;SHT31;63583;49.976;20.182;2023-04-09T00:53:04;4.48;96.86
75022;SHT31;63583;49.976;20.182;2023-04-09T00:55:30;4.49;96.86
75022;SHT31;63583;49.976;20.182;2023-04-09T00:57:56;4.47;96.89
75022;SHT31;63583;49.976;20.182;2023-04-09T01:00:21;4.44;96.76
75022;SHT31;63583;49.976;20.182;2023-04-09T01:02:48;4.45;96.79
75022;SHT31;63583;49.976;20.182;2023-04-09T01:05:14;4.49;96.66
75022;SHT31;63583;49.976;20.182;2023-04-09T01:08:25;4.48;96.61
75022;SHT31;63583;49.976;20.182;2023-04-09T01:11:01;4.49;96.64
75022;SHT31;63583;49.976;20.182;2023-04-09T01:13:44;4.49;96.55
75022;SHT31;63583;49.976;20.182;2023-04-09T01:16:14;4.54;96.55
75022;SHT31;63583;49.976;20.182;2023-04-09T01:18:49;4.58;96.00
75022;SHT31;63583;49.976;20.182;2023-04-09T01:21:19;4.64;95.70
75022;SHT31;63583;49.976;20.182;2023-04-09T01:29:23;4.55;95.55
75022;SHT31;63583;49.976;20.182;2023-04-09T01:31:50;4.47;95.58
75022;SHT31;63583;49.976;20.182;2023-04-09T01:34:17;4.44;95.97
75022;SHT31;63583;49.976;20.182;2023-04-09T01:36:56;4.45;95.80
75022;SHT31;63583;49.976;20.182;2023-04-09T01:39:23;4.42;95.90
75022;SHT31;63583;49.976;20.182;2023-04-09T01:41:49;4.40;95.91
75022;SHT31;63583;49.976;20.182;2023-04-09T01:44:16;4.44;95.97
75022;SHT31;63583;49.976;20.182;2023-04-09T01:46:42;4.37;95.87
75022;SHT31;63583;49.976;20.182;2023-04-09T01:49:09;4.37;96.06
75022;SHT31;63583;49.976;20.182;2023-04-09T01:51:35;4.37;95.82
75022;SHT31;63583;49.976;20.182;2023-04-09T01:54:01;4.34;95.95
75022;SHT31;63583;49.976;20.182;2023-04-09T01:56:39;4.31;96.11
75022;SHT31;63583;49.976;20.182;2023-04-09T01:59:04;4.33;96.14
75022;SHT31;63583;49.976;20.182;2023-04-09T02:01:46;4.33;96.18
75022;SHT31;63583;49.976;20.182;2023-04-09T02:04:42;4.34;96.23
75022;SHT31;63583;49.976;20.182;2023-04-09T02:07:17;4.38;96.20
75022;SHT31;63583;49.976;20.182;2023-04-09T02:09:44;4.37;95.99
75022;SHT31;63583;49.976;20.182;2023-04-09T02:12:13;4.40;95.95
75022;SHT31;63583;49.976;20.182;2023-04-09T02:14:41;4.41;95.86
75022;SHT31;63583;49.976;20.182;2023-04-09T02:17:07;4.47;95.58
75022;SHT31;63583;49.976;20.182;2023-04-09T02:19:43;4.40;95.48
75022;SHT31;63583;49.976;20.182;2023-04-09T02:22:10;4.40;95.71
75022;SHT31;63583;49.976;20.182;2023-04-09T02:24:37;4.45;95.50
75022;SHT31;63583;49.976;20.182;2023-04-09T02:27:03;4.49;95.06
75022;SHT31;63583;49.976;20.182;2023-04-09T02:29:30;4.49;95.21
75022;SHT31;63583;49.976;20.182;2023-04-09T02:31:56;4.55;94.97
75022;SHT31;63583;49.976;20.182;2023-04-09T02:34:22;4.49;94.97
75022;SHT31;63583;49.976;20.182;2023-04-09T02:36:48;4.58;94.42
75022;SHT31;63583;49.976;20.182;2023-04-09T02:39:13;4.52;94.72
75022;SHT31;63583;49.976;20.182;2023-04-09T02:41:39;4.54;94.84
75022;SHT31;63583;49.976;20.182;2023-04-09T02:44:05;4.67;93.87
75022;SHT31;63583;49.976;20.182;2023-04-09T02:46:30;4.72;93.48
75022;SHT31;63583;49.976;20.182;2023-04-09T02:48:56;4.65;93.63
75022;SHT31;63583;49.976;20.182;2023-04-09T02:51:21;4.54;93.82
75022;SHT31;63583;49.976;20.182;2023-04-09T02:53:47;4.42;94.43
75022;SHT31;63583;49.976;20.182;2023-04-09T02:56:13;4.34;94.93
75022;SHT31;63583;49.976;20.182;2023-04-09T02:58:38;4.28;95.14
75022;SHT31;63583;49.976;20.182;2023-04-09T03:01:04;4.18;95.61
75022;SHT31;63583;49.976;20.182;2023-04-09T03:03:30;4.22;95.85
75022;SHT31;63583;49.976;20.182;2023-04-09T03:05:55;4.22;95.98
75022;SHT31;63583;49.976;20.182;2023-04-09T03:08:21;4.36;95.50
75022;SHT31;63583;49.976;20.182;2023-04-09T03:10:47;4.36;95.15
75022;SHT31;63583;49.976;20.182;2023-04-09T03:13:13;4.34;95.33
75022;SHT31;63583;49.976;20.182;2023-04-09T03:15:38;4.42;94.76
75022;SHT31;63583;49.976;20.182;2023-04-09T03:18:04;4.54;94.34
75022;SHT31;63583;49.976;20.182;2023-04-09T03:20:30;4.57;94.13
75022;SHT31;63583;49.976;20.182;2023-04-09T03:22:55;4.57;93.61
75022;SHT31;63583;49.976;20.182;2023-04-09T03:25:21;4.72;93.31
75022;SHT31;63583;49.976;20.182;2023-04-09T03:27:46;4.75;92.87
75022;SHT31;63583;49.976;20.182;2023-04-09T03:30:12;4.72;93.06
75022;SHT31;63583;49.976;20.182;2023-04-09T03:32:38;4.73;92.73
75022;SHT31;63583;49.976;20.182;2023-04-09T03:35:03;4.71;92.82
75022;SHT31;63583;49.976;20.182;2023-04-09T03:37:29;4.69;92.67
75022;SHT31;63583;49.976;20.182;2023-04-09T03:39:55;4.73;92.82
75022;SHT31;63583;49.976;20.182;2023-04-09T03:42:20;4.61;93.20
75022;SHT31;63583;49.976;20.182;2023-04-09T03:44:46;4.54;93.63
75022;SHT31;63583;49.976;20.182;2023-04-09T03:47:12;4.51;94.12
75022;SHT31;63583;49.976;20.182;2023-04-09T03:49:37;4.44;94.27
75022;SHT31;63583;49.976;20.182;2023-04-09T03:52:03;4.54;94.29
75022;SHT31;63583;49.976;20.182;2023-04-09T03:54:30;4.54;94.13
75022;SHT31;63583;49.976;20.182;2023-04-09T03:56:56;4.52;94.34
75022;SHT31;63583;49.976;20.182;2023-04-09T03:59:22;4.52;94.11
75022;SHT31;63583;49.976;20.182;2023-04-09T04:01:48;4.52;94.06
75022;SHT31;63583;49.976;20.182;2023-04-09T04:04:13;4.59;94.18
75022;SHT31;63583;49.976;20.182;2023-04-09T04:06:39;4.57;94.03
75022;SHT31;63583;49.976;20.182;2023-04-09T04:09:05;4.49;94.02
75022;SHT31;63583;49.976;20.182;2023-04-09T04:11:31;4.44;94.25
75022;SHT31;63583;49.976;20.182;2023-04-09T04:13:56;4.42;94.67
75022;SHT31;63583;49.976;20.182;2023-04-09T04:16:22;4.40;95.01
75022;SHT31;63583;49.976;20.182;2023-04-09T04:18:47;4.36;94.92
75022;SHT31;63583;49.976;20.182;2023-04-09T04:21:14;4.31;95.31
75022;SHT31;63583;49.976;20.182;2023-04-09T04:23:39;4.24;95.41
75022;SHT31;63583;49.976;20.182;2023-04-09T04:26:09;4.24;95.71
75022;SHT31;63583;49.976;20.182;2023-04-09T04:28:36;4.24;95.70
75022;SHT31;63583;49.976;20.182;2023-04-09T04:31:05;4.30;95.58
75022;SHT31;63583;49.976;20.182;2023-04-09T04:33:31;4.30;95.86
75022;SHT31;63583;49.976;20.182;2023-04-09T04:36:07;4.31;95.85
75022;SHT31;63583;49.976;20.182;2023-04-09T04:38:33;4.36;95.95
75022;SHT31;63583;49.976;20.182;2023-04-09T04:41:00;4.38;95.94
75022;SHT31;63583;49.976;20.182;2023-04-09T04:43:25;4.37;95.95
75022;SHT31;63583;49.976;20.182;2023-04-09T04:45:51;4.44;95.99
75022;SHT31;63583;49.976;20.182;2023-04-09T04:48:17;4.57;95.58
75022;SHT31;63583;49.976;20.182;2023-04-09T04:50:42;4.57;95.38
75022;SHT31;63583;49.976;20.182;2023-04-09T04:53:08;4.62;95.52
75022;SHT31;63583;49.976;20.182;2023-04-09T04:55:34;4.65;95.60
75022;SHT31;63583;49.976;20.182;2023-04-09T04:58:01;4.64;95.59
75022;SHT31;63583;49.976;20.182;2023-04-09T05:00:27;4.69;95.50
75022;SHT31;63583;49.976;20.182;2023-04-09T05:02:52;4.80;95.22
75022;SHT31;63583;49.976;20.182;2023-04-09T05:05:18;4.82;95.00
75022;SHT31;63583;49.976;20.182;2023-04-09T05:07:43;4.79;95.01
75022;SHT31;63583;49.976;20.182;2023-04-09T05:10:09;4.83;94.81
75022;SHT31;63583;49.976;20.182;2023-04-09T05:12:35;4.92;94.40
75022;SHT31;63583;49.976;20.182;2023-04-09T05:15:00;4.87;94.49
75022;SHT31;63583;49.976;20.182;2023-04-09T05:17:26;4.92;94.76
75022;SHT31;63583;49.976;20.182;2023-04-09T05:19:52;4.97;94.89
75022;SHT31;63583;49.976;20.182;2023-04-09T05:22:18;5.05;94.65
75022;SHT31;63583;49.976;20.182;2023-04-09T05:24:44;5.07;94.42
75022;SHT31;63583;49.976;20.182;2023-04-09T05:27:09;5.03;94.48
75022;SHT31;63583;49.976;20.182;2023-04-09T05:29:35;5.10;94.03
75022;SHT31;63583;49.976;20.182;2023-04-09T05:32:01;5.20;93.75
75022;SHT31;63583;49.976;20.182;2023-04-09T05:34:27;5.22;93.42
75022;SHT31;63583;49.976;20.182;2023-04-09T05:36:53;5.23;93.68
75022;SHT31;63583;49.976;20.182;2023-04-09T05:39:19;5.23;93.59
75022;SHT31;63583;49.976;20.182;2023-04-09T05:41:44;5.33;93.31
75022;SHT31;63583;49.976;20.182;2023-04-09T05:44:11;5.30;93.52
75022;SHT31;63583;49.976;20.182;2023-04-09T05:46:36;5.40;93.34
75022;SHT31;63583;49.976;20.182;2023-04-09T05:49:02;5.41;93.15
75022;SHT31;63583;49.976;20.182;2023-04-09T05:51:28;5.55;92.96
75022;SHT31;63583;49.976;20.182;2023-04-09T05:53:54;5.58;93.00
75022;SHT31;63583;49.976;20.182;2023-04-09T05:56:19;5.59;93.00
75022;SHT31;63583;49.976;20.182;2023-04-09T05:58:47;5.65;93.08
75022;SHT31;63583;49.976;20.182;2023-04-09T06:01:13;5.71;93.03
75022;SHT31;63583;49.976;20.182;2023-04-09T06:03:38;5.74;92.95
75022;SHT31;63583;49.976;20.182;2023-04-09T06:06:05;5.78;92.85
75022;SHT31;63583;49.976;20.182;2023-04-09T06:08:31;5.89;92.78
75022;SHT31;63583;49.976;20.182;2023-04-09T06:10:57;5.92;92.81
75022;SHT31;63583;49.976;20.182;2023-04-09T06:13:23;5.92;92.60
75022;SHT31;63583;49.976;20.182;2023-04-09T06:15:49;6.01;92.39
75022;SHT31;63583;49.976;20.182;2023-04-09T06:18:14;6.13;91.55
75022;SHT31;63583;49.976;20.182;2023-04-09T06:20:40;6.20;91.67
75022;SHT31;63583;49.976;20.182;2023-04-09T06:23:06;6.36;91.56
75022;SHT31;63583;49.976;20.182;2023-04-09T06:25:31;6.40;91.47
75022;SHT31;63583;49.976;20.182;2023-04-09T06:27:57;6.23;91.59
75022;SHT31;63583;49.976;20.182;2023-04-09T06:30:23;6.41;91.80
75022;SHT31;63583;49.976;20.182;2023-04-09T06:32:50;6.57;91.25
75022;SHT31;63583;49.976;20.182;2023-04-09T06:35:15;6.60;91.37
75022;SHT31;63583;49.976;20.182;2023-04-09T06:37:41;6.79;90.72
75022;SHT31;63583;49.976;20.182;2023-04-09T06:40:07;6.92;90.13
75022;SHT31;63583;49.976;20.182;2023-04-09T06:42:33;6.91;90.23
75022;SHT31;63583;49.976;20.182;2023-04-09T06:44:58;6.96;90.14
75022;SHT31;63583;49.976;20.182;2023-04-09T06:47:24;7.24;89.16
75022;SHT31;63583;49.976;20.182;2023-04-09T06:49:50;7.38;88.31
75022;SHT31;63583;49.976;20.182;2023-04-09T06:52:16;7.48;87.74
75022;SHT31;63583;49.976;20.182;2023-04-09T06:54:41;7.48;87.65
75022;SHT31;63583;49.976;20.182;2023-04-09T06:57:07;7.60;87.28
75022;SHT31;63583;49.976;20.182;2023-04-09T06:59:33;7.60;86.70
75022;SHT31;63583;49.976;20.182;2023-04-09T07:01:59;7.73;86.45
75022;SHT31;63583;49.976;20.182;2023-04-09T07:04:25;7.88;86.58
75022;SHT31;63583;49.976;20.182;2023-04-09T07:06:51;8.02;86.00
75022;SHT31;63583;49.976;20.182;2023-04-09T07:09:19;8.06;85.22
75022;SHT31;63583;49.976;20.182;2023-04-09T07:11:45;8.07;85.31
75022;SHT31;63583;49.976;20.182;2023-04-09T07:14:10;8.10;84.83
75022;SHT31;63583;49.976;20.182;2023-04-09T07:16:36;8.30;84.78
75022;SHT31;63583;49.976;20.182;2023-04-09T07:19:02;8.44;84.21
75022;SHT31;63583;49.976;20.182;2023-04-09T07:21:27;8.36;82.46
75022;SHT31;63583;49.976;20.182;2023-04-09T07:23:53;8.17;83.81
75022;SHT31;63583;49.976;20.182;2023-04-09T07:26:19;8.05;83.98
75022;SHT31;63583;49.976;20.182;2023-04-09T07:28:44;8.03;85.39
75022;SHT31;63583;49.976;20.182;2023-04-09T07:31:10;8.26;84.32
75022;SHT31;63583;49.976;20.182;2023-04-09T07:33:37;8.21;83.97
75022;SHT31;63583;49.976;20.182;2023-04-09T07:36:03;8.01;84.53
75022;SHT31;63583;49.976;20.182;2023-04-09T07:38:28;8.13;85.29
75022;SHT31;63583;49.976;20.182;2023-04-09T07:40:54;8.28;84.61
75022;SHT31;63583;49.976;20.182;2023-04-09T07:43:20;8.32;85.07
75022;SHT31;63583;49.976;20.182;2023-04-09T07:45:49;8.47;84.07
75022;SHT31;63583;49.976;20.182;2023-04-09T07:48:16;8.57;83.57
75022;SHT31;63583;49.976;20.182;2023-04-09T07:50:42;8.71;83.18
75022;SHT31;63583;49.976;20.182;2023-04-09T07:53:09;8.84;82.40
75022;SHT31;63583;49.976;20.182;2023-04-09T07:55:36;8.84;80.97
75022;SHT31;63583;49.976;20.182;2023-04-09T07:58:02;8.95;80.93
75022;SHT31;63583;49.976;20.182;2023-04-09T08:00:29;9.23;81.19
75022;SHT31;63583;49.976;20.182;2023-04-09T08:02:55;9.28;79.44
75022;SHT31;63583;49.976;20.182;2023-04-09T08:05:22;9.15;79.27
75022;SHT31;63583;49.976;20.182;2023-04-09T08:07:49;9.14;79.53
75022;SHT31;63583;49.976;20.182;2023-04-09T08:10:15;9.08;80.64
75022;SHT31;63583;49.976;20.182;2023-04-09T08:12:41;9.09;80.01
75022;SHT31;63583;49.976;20.182;2023-04-09T08:15:07;9.08;79.86
75022;SHT31;63583;49.976;20.182;2023-04-09T08:17:33;9.19;79.62
75022;SHT31;63583;49.976;20.182;2023-04-09T08:20:02;9.28;79.90
75022;SHT31;63583;49.976;20.182;2023-04-09T08:22:28;9.57;79.58
75022;SHT31;63583;49.976;20.182;2023-04-09T08:24:55;9.80;80.97
75022;SHT31;63583;49.976;20.182;2023-04-09T08:27:21;10.12;77.66
75022;SHT31;63583;49.976;20.182;2023-04-09T08:29:47;9.99;75.95
75022;SHT31;63583;49.976;20.182;2023-04-09T08:32:12;9.78;76.56
75022;SHT31;63583;49.976;20.182;2023-04-09T08:34:38;9.59;77.94
75022;SHT31;63583;49.976;20.182;2023-04-09T08:37:04;9.42;79.62
75022;SHT31;63583;49.976;20.182;2023-04-09T08:39:30;9.38;78.61
75022;SHT31;63583;49.976;20.182;2023-04-09T08:41:58;9.35;79.11
75022;SHT31;63583;49.976;20.182;2023-04-09T08:44:28;9.56;77.28
75022;SHT31;63583;49.976;20.182;2023-04-09T08:46:54;9.70;76.75
75022;SHT31;63583;49.976;20.182;2023-04-09T08:49:20;9.66;76.56
75022;SHT31;63583;49.976;20.182;2023-04-09T08:51:47;9.78;75.61
75022;SHT31;63583;49.976;20.182;2023-04-09T08:54:17;9.66;76.19
75022;SHT31;63583;49.976;20.182;2023-04-09T08:56:47;9.93;76.83
75022;SHT31;63583;49.976;20.182;2023-04-09T08:59:15;10.05;76.08
75022;SHT31;63583;49.976;20.182;2023-04-09T09:01:42;10.12;75.35
75022;SHT31;63583;49.976;20.182;2023-04-09T09:04:09;10.24;75.73
75022;SHT31;63583;49.976;20.182;2023-04-09T09:06:36;10.52;73.99
75022;SHT31;63583;49.976;20.182;2023-04-09T09:09:16;10.28;76.02
75022;SHT31;63583;49.976;20.182;2023-04-09T09:11:46;10.29;74.58
75022;SHT31;63583;49.976;20.182;2023-04-09T09:14:17;10.28;75.64
75022;SHT31;63583;49.976;20.182;2023-04-09T09:17:02;10.33;75.73
75022;SHT31;63583;49.976;20.182;2023-04-09T09:19:31;10.49;74.18
75022;SHT31;63583;49.976;20.182;2023-04-09T09:22:02;10.45;74.48
75022;SHT31;63583;49.976;20.182;2023-04-09T09:24:29;10.52;73.95
75022;SHT31;63583;49.976;20.182;2023-04-09T09:26:54;10.28;75.57
75022;SHT31;63583;49.976;20.182;2023-04-09T09:29:21;10.08;71.90
75022;SHT31;63583;49.976;20.182;2023-04-09T09:31:56;10.21;72.11
75022;SHT31;63583;49.976;20.182;2023-04-09T09:34:23;10.14;73.32
75022;SHT31;63583;49.976;20.182;2023-04-09T09:36:49;10.29;73.41
75022;SHT31;63583;49.976;20.182;2023-04-09T09:39:15;10.43;73.51
75022;SHT31;63583;49.976;20.182;2023-04-09T09:41:42;10.59;72.68
75022;SHT31;63583;49.976;20.182;2023-04-09T09:44:10;10.19;72.36
75022;SHT31;63583;49.976;20.182;2023-04-09T09:46:40;9.99;73.66
75022;SHT31;63583;49.976;20.182;2023-04-09T09:49:07;10.21;76.03
75022;SHT31;63583;49.976;20.182;2023-04-09T09:51:37;10.32;74.67
75022;SHT31;63583;49.976;20.182;2023-04-09T09:54:06;10.18;74.71
75022;SHT31;63583;49.976;20.182;2023-04-09T09:56:37;10.49;73.79
75022;SHT31;63583;49.976;20.182;2023-04-09T09:59:14;10.59;73.32
75022;SHT31;63583;49.976;20.182;2023-04-09T10:01:42;10.85;69.85
75022;SHT31;63583;49.976;20.182;2023-04-09T10:04:13;10.84;70.18
75022;SHT31;63583;49.976;20.182;2023-04-09T10:06:43;10.79;70.08
75022;SHT31;63583;49.976;20.182;2023-04-09T10:09:09;10.73;71.09
75022;SHT31;63583;49.976;20.182;2023-04-09T10:11:36;10.73;70.19
75022;SHT31;63583;49.976;20.182;2023-04-09T10:14:03;10.85;69.36
75022;SHT31;63583;49.976;20.182;2023-04-09T10:16:31;10.67;69.56
75022;SHT31;63583;49.976;20.182;2023-04-09T10:18:58;10.97;69.16
75022;SHT31;63583;49.976;20.182;2023-04-09T10:21:39;11.24;69.52
75022;SHT31;63583;49.976;20.182;2023-04-09T10:24:07;11.38;67.84
75022;SHT31;63583;49.976;20.182;2023-04-09T10:26:34;11.35;68.41
75022;SHT31;63583;49.976;20.182;2023-04-09T10:29:08;11.49;68.24
75022;SHT31;63583;49.976;20.182;2023-04-09T10:31:47;11.68;68.96
75022;SHT31;63583;49.976;20.182;2023-04-09T10:34:19;11.51;67.77
75022;SHT31;63583;49.976;20.182;2023-04-09T10:36:49;11.27;67.91
75022;SHT31;63583;49.976;20.182;2023-04-09T10:39:17;11.14;67.56
75022;SHT31;63583;49.976;20.182;2023-04-09T10:41:43;11.03;68.38
75022;SHT31;63583;49.976;20.182;2023-04-09T10:44:24;10.99;69.24
75022;SHT31;63583;49.976;20.182;2023-04-09T10:46:52;10.89;68.31
75022;SHT31;63583;49.976;20.182;2023-04-09T10:49:23;11.10;68.69
75022;SHT31;63583;49.976;20.182;2023-04-09T10:59:50;10.79;69.95
75022;SHT31;63583;49.976;20.182;2023-04-09T11:02:43;10.96;70.54
75022;SHT31;63583;49.976;20.182;2023-04-09T11:08:04;11.22;69.43
75022;SHT31;63583;49.976;20.182;2023-04-09T11:10:32;10.91;68.83
75022;SHT31;63583;49.976;20.182;2023-04-09T11:12:58;10.81;68.92
75022;SHT31;63583;49.976;20.182;2023-04-09T11:15:24;11.00;71.12
75022;SHT31;63583;49.976;20.182;2023-04-09T11:17:50;11.00;70.40
75022;SHT31;63583;49.976;20.182;2023-04-09T11:20:19;11.01;69.05
75022;SHT31;63583;49.976;20.182;2023-04-09T11:22:46;10.84;68.95
75022;SHT31;63583;49.976;20.182;2023-04-09T11:25:24;10.99;71.39
75022;SHT31;63583;49.976;20.182;2023-04-09T11:27:51;10.89;69.86
75022;SHT31;63583;49.976;20.182;2023-04-09T11:30:18;10.85;70.64
75022;SHT31;63583;49.976;20.182;2023-04-09T11:32:44;11.03;69.45
75022;SHT31;63583;49.976;20.182;2023-04-09T11:35:14;11.08;69.29
75022;SHT31;63583;49.976;20.182;2023-04-09T11:37:41;11.24;69.99
75022;SHT31;63583;49.976;20.182;2023-04-09T11:40:18;11.15;69.38
75022;SHT31;63583;49.976;20.182;2023-04-09T11:42:45;10.99;70.73
75022;SHT31;63583;49.976;20.182;2023-04-09T11:45:13;11.10;70.75
75022;SHT31;63583;49.976;20.182;2023-04-09T11:47:39;11.25;68.78
75022;SHT31;63583;49.976;20.182;2023-04-09T11:50:08;11.24;68.75
75022;SHT31;63583;49.976;20.182;2023-04-09T11:52:34;11.39;69.79
75022;SHT31;63583;49.976;20.182;2023-04-09T11:55:07;11.20;67.71
75022;SHT31;63583;49.976;20.182;2023-04-09T11:57:38;11.10;67.94
75022;SHT31;63583;49.976;20.182;2023-04-09T12:02:38;11.28;68.69
75022;SHT31;63583;49.976;20.182;2023-04-09T12:05:07;11.39;67.60
75022;SHT31;63583;49.976;20.182;2023-04-09T12:07:33;11.36;68.70
75022;SHT31;63583;49.976;20.182;2023-04-09T12:10:06;11.34;67.78
75022;SHT31;63583;49.976;20.182;2023-04-09T12:12:43;11.00;68.84
75022;SHT31;63583;49.976;20.182;2023-04-09T12:15:20;10.93;68.69
75022;SHT31;63583;49.976;20.182;2023-04-09T12:17:50;10.97;69.33
75022;SHT31;63583;49.976;20.182;2023-04-09T12:20:28;10.93;69.53
75022;SHT31;63583;49.976;20.182;2023-04-09T12:22:54;10.94;71.60
75022;SHT31;63583;49.976;20.182;2023-04-09T12:25:20;10.94;70.51
75022;SHT31;63583;49.976;20.182;2023-04-09T12:27:46;10.93;71.20
75022;SHT31;63583;49.976;20.182;2023-04-09T12:30:12;10.72;71.40
75022;SHT31;63583;49.976;20.182;2023-04-09T12:32:37;10.89;71.30
75022;SHT31;63583;49.976;20.182;2023-04-09T12:35:03;10.97;70.29
75022;SHT31;63583;49.976;20.182;2023-04-09T12:37:29;11.10;70.91
75022;SHT31;63583;49.976;20.182;2023-04-09T12:39:55;11.22;70.17
75022;SHT31;63583;49.976;20.182;2023-04-09T12:42:20;11.22;69.59
75022;SHT31;63583;49.976;20.182;2023-04-09T12:44:46;11.27;69.50
75022;SHT31;63583;49.976;20.182;2023-04-09T12:47:12;11.46;69.09
75022;SHT31;63583;49.976;20.182;2023-04-09T12:49:38;11.48;69.70
75022;SHT31;63583;49.976;20.182;2023-04-09T12:52:03;11.28;68.18
75022;SHT31;63583;49.976;20.182;2023-04-09T12:54:29;11.24;70.17
75022;SHT31;63583;49.976;20.182;2023-04-09T12:56:55;11.22;70.30
75022;SHT31;63583;49.976;20.182;2023-04-09T12:59:20;11.41;70.27
75022;SHT31;63583;49.976;20.182;2023-04-09T13:01:46;11.41;70.28
75022;SHT31;63583;49.976;20.182;2023-04-09T13:04:12;11.58;67.98
75022;SHT31;63583;49.976;20.182;2023-04-09T13:06:37;11.41;67.09
75022;SHT31;63583;49.976;20.182;2023-04-09T13:09:03;11.45;68.93
75022;SHT31;63583;49.976;20.182;2023-04-09T13:11:28;11.25;67.22
75022;SHT31;63583;49.976;20.182;2023-04-09T13:13:54;11.15;68.35
75022;SHT31;63583;49.976;20.182;2023-04-09T13:16:20;11.12;69.06
75022;SHT31;63583;49.976;20.182;2023-04-09T13:18:45;11.20;68.28
75022;SHT31;63583;49.976;20.182;2023-04-09T13:21:11;11.17;69.64
75022;SHT31;63583;49.976;20.182;2023-04-09T13:23:39;11.34;69.85
75022;SHT31;63583;49.976;20.182;2023-04-09T13:26:05;11.43;69.00
75022;SHT31;63583;49.976;20.182;2023-04-09T13:28:31;11.51;68.95
75022;SHT31;63583;49.976;20.182;2023-04-09T13:30:56;11.51;66.33
75022;SHT31;63583;49.976;20.182;2023-04-09T13:33:22;11.59;67.21
75022;SHT31;63583;49.976;20.182;2023-04-09T13:35:48;11.70;67.19
75022;SHT31;63583;49.976;20.182;2023-04-09T13:38:15;11.73;66.92
75022;SHT31;63583;49.976;20.182;2023-04-09T13:40:41;11.83;65.70
75022;SHT31;63583;49.976;20.182;2023-04-09T13:43:06;12.06;66.35
75022;SHT31;63583;49.976;20.182;2023-04-09T13:45:32;12.14;64.34
75022;SHT31;63583;49.976;20.182;2023-04-09T13:47:57;12.31;64.52
75022;SHT31;63583;49.976;20.182;2023-04-09T13:50:23;12.38;64.89
75022;SHT31;63583;49.976;20.182;2023-04-09T13:52:49;12.48;64.67
75022;SHT31;63583;49.976;20.182;2023-04-09T13:55:14;12.41;64.08
75022;SHT31;63583;49.976;20.182;2023-04-09T13:57:40;12.48;65.88
75022;SHT31;63583;49.976;20.182;2023-04-09T14:00:06;12.52;63.13
75022;SHT31;63583;49.976;20.182;2023-04-09T14:02:32;12.55;62.73
75022;SHT31;63583;49.976;20.182;2023-04-09T14:04:58;12.46;62.74
75022;SHT31;63583;49.976;20.182;2023-04-09T14:07:24;12.68;61.66
75022;SHT31;63583;49.976;20.182;2023-04-09T14:09:50;12.52;61.52
75022;SHT31;63583;49.976;20.182;2023-04-09T14:12:16;12.41;62.17
75022;SHT31;63583;49.976;20.182;2023-04-09T14:14:42;12.54;65.22
75022;SHT31;63583;49.976;20.182;2023-04-09T14:17:07;12.55;64.51
75022;SHT31;63583;49.976;20.182;2023-04-09T14:19:33;12.51;64.71
75022;SHT31;63583;49.976;20.182;2023-04-09T14:21:58;12.16;64.92
75022;SHT31;63583;49.976;20.182;2023-04-09T14:24:24;12.07;63.83
75022;SHT31;63583;49.976;20.182;2023-04-09T14:26:50;12.03;64.80
75022;SHT31;63583;49.976;20.182;2023-04-09T14:29:18;12.03;65.42
75022;SHT31;63583;49.976;20.182;2023-04-09T14:31:43;12.06;64.85
75022;SHT31;63583;49.976;20.182;2023-04-09T14:34:11;11.90;64.52
75022;SHT31;63583;49.976;20.182;2023-04-09T14:36:37;11.72;66.11
75022;SHT31;63583;49.976;20.182;2023-04-09T14:39:02;11.73;65.95
75022;SHT31;63583;49.976;20.182;2023-04-09T14:41:28;11.69;66.43
75022;SHT31;63583;49.976;20.182;2023-04-09T14:43:53;11.58;65.20
75022;SHT31;63583;49.976;20.182;2023-04-09T14:46:19;11.49;65.68
75022;SHT31;63583;49.976;20.182;2023-04-09T14:48:46;11.42;66.73
75022;SHT31;63583;49.976;20.182;2023-04-09T14:51:11;11.35;65.53
75022;SHT31;63583;49.976;20.182;2023-04-09T14:53:37;11.34;66.90
75022;SHT31;63583;49.976;20.182;2023-04-09T14:56:03;11.15;68.06
75022;SHT31;63583;49.976;20.182;2023-04-09T14:58:28;11.04;67.56
75022;SHT31;63583;49.976;20.182;2023-04-09T15:00:54;11.00;67.55
75022;SHT31;63583;49.976;20.182;2023-04-09T15:03:20;11.08;68.45
75022;SHT31;63583;49.976;20.182;2023-04-09T15:05:47;11.10;67.80
75022;SHT31;63583;49.976;20.182;2023-04-09T15:08:12;11.25;66.82
75022;SHT31;63583;49.976;20.182;2023-04-09T15:10:38;11.11;68.12
75022;SHT31;63583;49.976;20.182;2023-04-09T15:13:03;11.08;68.15
75022;SHT31;63583;49.976;20.182;2023-04-09T15:15:29;11.03;67.40
75022;SHT31;63583;49.976;20.182;2023-04-09T15:17:55;11.00;67.43
75022;SHT31;63583;49.976;20.182;2023-04-09T15:20:21;10.99;66.72
75022;SHT31;63583;49.976;20.182;2023-04-09T15:22:46;10.96;68.15
75022;SHT31;63583;49.976;20.182;2023-04-09T15:25:12;10.99;67.45
75022;SHT31;63583;49.976;20.182;2023-04-09T15:27:38;11.00;67.20
75022;SHT31;63583;49.976;20.182;2023-04-09T15:30:04;11.04;67.02
75022;SHT31;63583;49.976;20.182;2023-04-09T15:32:30;11.04;65.78
75022;SHT31;63583;49.976;20.182;2023-04-09T15:34:57;11.15;65.70
75022;SHT31;63583;49.976;20.182;2023-04-09T15:37:23;11.17;65.55
75022;SHT31;63583;49.976;20.182;2023-04-09T15:39:48;11.04;65.75
75022;SHT31;63583;49.976;20.182;2023-04-09T15:42:14;11.03;65.66
75022;SHT31;63583;49.976;20.182;2023-04-09T15:44:45;11.01;66.73